sensor_id;sensor_type;location;lat;lon;timestamp;P1;durP1;ratioP1;P2;durP2;ratioP2
55053;SDS011;40954;45.668;18.980;2023-04-03T00:01:18;9.63;;;8.15;;
55053;SDS011;40954;45.668;18.980;2023-04-03T00:03:44;8.68;;;7.78;;
55053;SDS011;40954;45.668;18.980;2023-04-03T00:06:11;9.93;;;8.15;;
55053;SDS011;40954;45.668;18.980;2023-04-03T00:08:37;9.95;;;7.93;;
55053;SDS011;40954;45.668;18.980;2023-04-03T00:11:04;9.98;;;8.15;;
55053;SDS011;40954;45.668;18.980;2023-04-03T00:13:30;9.18;;;8.27;;
55053;SDS011;40954;45.668;18.980;2023-04-03T00:15:56;8.77;;;7.88;;
55053;SDS011;40954;45.668;18.980;2023-04-03T00:18:22;8.90;;;8.00;;
55053;SDS011;40954;45.668;18.980;2023-04-03T00:20:48;9.75;;;8.30;;
55053;SDS011;40954;45.668;18.980;2023-04-03T00:23:14;10.63;;;8.32;;
55053;SDS011;40954;45.668;18.980;2023-04-03T00:25:41;8.15;;;7.30;;
55053;SDS011;40954;45.668;18.980;2023-04-03T00:28:07;9.50;;;8.52;;
55053;SDS011;40954;45.668;18.980;2023-04-03T00:30:33;8.95;;;7.93;;
55053;SDS011;40954;45.668;18.980;2023-04-03T00:33:00;9.90;;;8.13;;
55053;SDS011;40954;45.668;18.980;2023-04-03T00:35:26;8.82;;;8.00;;
55053;SDS011;40954;45.668;18.980;2023-04-03T00:37:53;9.32;;;8.43;;
55053;SDS011;40954;45.668;18.980;2023-04-03T00:40:20;10.55;;;8.45;;
55053;SDS011;40954;45.668;18.980;2023-04-03T00:42:47;9.63;;;7.95;;
55053;SDS011;40954;45.668;18.980;2023-04-03T00:45:23;9.30;;;7.75;;
55053;SDS011;40954;45.668;18.980;2023-04-03T00:47:50;8.98;;;7.97;;
55053;SDS011;40954;45.668;18.980;2023-04-03T00:50:16;8.98;;;7.75;;
55053;SDS011;40954;45.668;18.980;2023-04-03T00:52:42;9.05;;;8.07;;
55053;SDS011;40954;45.668;18.980;2023-04-03T00:55:11;8.93;;;8.13;;
55053;SDS011;40954;45.668;18.980;2023-04-03T00:57:38;9.43;;;8.43;;
55053;SDS011;40954;45.668;18.980;2023-04-03T01:00:05;9.40;;;8.40;;
55053;SDS011;40954;45.668;18.980;2023-04-03T01:02:32;9.45;;;8.27;;
55053;SDS011;40954;45.668;18.980;2023-04-03T01:04:58;9.73;;;8.13;;
55053;SDS011;40954;45.668;18.980;2023-04-03T01:07:26;9.05;;;8.13;;
55053;SDS011;40954;45.668;18.980;2023-04-03T01:09:55;9.57;;;8.30;;
55053;SDS011;40954;45.668;18.980;2023-04-03T01:12:23;9.20;;;8.25;;
55053;SDS011;40954;45.668;18.980;2023-04-03T01:14:50;8.95;;;8.05;;
55053;SDS011;40954;45.668;18.980;2023-04-03T01:20:43;10.15;;;8.05;;
55053;SDS011;40954;45.668;18.980;2023-04-03T01:23:05;10.05;;;8.15;;
55053;SDS011;40954;45.668;18.980;2023-04-03T01:25:32;9.57;;;8.15;;
55053;SDS011;40954;45.668;18.980;2023-04-03T01:27:59;9.50;;;8.50;;
55053;SDS011;40954;45.668;18.980;2023-04-03T01:30:28;12.07;;;8.25;;
55053;SDS011;40954;45.668;18.980;2023-04-03T01:32:56;10.00;;;8.88;;
55053;SDS011;40954;45.668;18.980;2023-04-03T01:35:22;8.77;;;7.85;;
55053;SDS011;40954;45.668;18.980;2023-04-03T01:37:48;9.82;;;8.48;;
55053;SDS011;40954;45.668;18.980;2023-04-03T01:40:14;9.30;;;8.30;;
55053;SDS011;40954;45.668;18.980;2023-04-03T01:42:40;9.90;;;8.63;;
55053;SDS011;40954;45.668;18.980;2023-04-03T01:45:06;8.55;;;7.65;;
55053;SDS011;40954;45.668;18.980;2023-04-03T01:47:32;10.85;;;8.25;;
55053;SDS011;40954;45.668;18.980;2023-04-03T01:49:58;9.43;;;8.10;;
55053;SDS011;40954;45.668;18.980;2023-04-03T01:52:24;9.40;;;7.68;;
55053;SDS011;40954;45.668;18.980;2023-04-03T01:54:50;10.27;;;9.23;;
55053;SDS011;40954;45.668;18.980;2023-04-03T01:57:16;9.13;;;8.18;;
55053;SDS011;40954;45.668;18.980;2023-04-03T01:59:42;10.52;;;8.45;;
55053;SDS011;40954;45.668;18.980;2023-04-03T02:02:08;9.38;;;8.45;;
55053;SDS011;40954;45.668;18.980;2023-04-03T02:04:37;8.48;;;7.68;;
55053;SDS011;40954;45.668;18.980;2023-04-03T02:07:03;10.70;;;8.45;;
55053;SDS011;40954;45.668;18.980;2023-04-03T02:09:29;13.30;;;8.30;;
55053;SDS011;40954;45.668;18.980;2023-04-03T02:11:55;9.07;;;8.18;;
55053;SDS011;40954;45.668;18.980;2023-04-03T02:14:21;9.27;;;8.27;;
55053;SDS011;40954;45.668;18.980;2023-04-03T02:16:48;8.85;;;7.95;;
55053;SDS011;40954;45.668;18.980;2023-04-03T02:19:14;9.30;;;8.20;;
55053;SDS011;40954;45.668;18.980;2023-04-03T02:21:40;9.70;;;8.68;;
55053;SDS011;40954;45.668;18.980;2023-04-03T02:24:06;12.50;;;8.15;;
55053;SDS011;40954;45.668;18.980;2023-04-03T02:26:33;10.13;;;9.05;;
55053;SDS011;40954;45.668;18.980;2023-04-03T02:28:59;9.52;;;8.52;;
55053;SDS011;40954;45.668;18.980;2023-04-03T02:31:25;9.27;;;8.30;;
55053;SDS011;40954;45.668;18.980;2023-04-03T02:33:51;9.77;;;8.77;;
55053;SDS011;40954;45.668;18.980;2023-04-03T02:36:17;9.55;;;8.35;;
55053;SDS011;40954;45.668;18.980;2023-04-03T02:38:43;8.68;;;7.75;;
55053;SDS011;40954;45.668;18.980;2023-04-03T02:41:10;9.40;;;8.48;;
55053;SDS011;40954;45.668;18.980;2023-04-03T02:43:37;9.73;;;8.70;;
55053;SDS011;40954;45.668;18.980;2023-04-03T02:46:03;9.55;;;8.65;;
55053;SDS011;40954;45.668;18.980;2023-04-03T02:48:30;11.88;;;8.80;;
55053;SDS011;40954;45.668;18.980;2023-04-03T02:50:56;10.80;;;9.27;;
55053;SDS011;40954;45.668;18.980;2023-04-03T02:53:22;11.00;;;9.30;;
55053;SDS011;40954;45.668;18.980;2023-04-03T02:55:48;10.27;;;9.07;;
55053;SDS011;40954;45.668;18.980;2023-04-03T02:58:14;10.77;;;9.68;;
55053;SDS011;40954;45.668;18.980;2023-04-03T03:00:41;10.25;;;9.13;;
55053;SDS011;40954;45.668;18.980;2023-04-03T03:03:07;10.02;;;8.90;;
55053;SDS011;40954;45.668;18.980;2023-04-03T03:05:33;9.75;;;8.80;;
55053;SDS011;40954;45.668;18.980;2023-04-03T03:07:59;10.18;;;9.07;;
55053;SDS011;40954;45.668;18.980;2023-04-03T03:10:25;12.70;;;9.02;;
55053;SDS011;40954;45.668;18.980;2023-04-03T03:12:51;13.82;;;8.95;;
55053;SDS011;40954;45.668;18.980;2023-04-03T03:15:18;9.85;;;8.18;;
55053;SDS011;40954;45.668;18.980;2023-04-03T03:17:44;9.20;;;8.23;;
55053;SDS011;40954;45.668;18.980;2023-04-03T03:20:11;9.27;;;8.38;;
55053;SDS011;40954;45.668;18.980;2023-04-03T03:22:39;10.88;;;8.02;;
55053;SDS011;40954;45.668;18.980;2023-04-03T03:25:05;9.43;;;8.05;;
55053;SDS011;40954;45.668;18.980;2023-04-03T03:27:31;11.50;;;7.65;;
55053;SDS011;40954;45.668;18.980;2023-04-03T03:29:57;8.68;;;7.68;;
55053;SDS011;40954;45.668;18.980;2023-04-03T03:32:23;8.13;;;7.32;;
55053;SDS011;40954;45.668;18.980;2023-04-03T03:34:49;9.88;;;8.15;;
55053;SDS011;40954;45.668;18.980;2023-04-03T03:37:15;8.10;;;7.30;;
55053;SDS011;40954;45.668;18.980;2023-04-03T03:39:41;8.50;;;7.68;;
55053;SDS011;40954;45.668;18.980;2023-04-03T03:42:07;10.88;;;7.65;;
55053;SDS011;40954;45.668;18.980;2023-04-03T03:44:33;8.57;;;7.45;;
55053;SDS011;40954;45.668;18.980;2023-04-03T03:46:59;8.45;;;7.57;;
55053;SDS011;40954;45.668;18.980;2023-04-03T03:49:25;8.00;;;7.20;;
55053;SDS011;40954;45.668;18.980;2023-04-03T03:51:51;8.73;;;7.32;;
55053;SDS011;40954;45.668;18.980;2023-04-03T03:54:17;8.02;;;7.10;;
55053;SDS011;40954;45.668;18.980;2023-04-03T03:56:43;8.20;;;7.30;;
55053;SDS011;40954;45.668;18.980;2023-04-03T03:59:11;8.35;;;7.53;;
55053;SDS011;40954;45.668;18.980;2023-04-03T04:01:37;8.48;;;7.63;;
55053;SDS011;40954;45.668;18.980;2023-04-03T04:04:04;8.02;;;7.22;;
55053;SDS011;40954;45.668;18.980;2023-04-03T04:06:30;9.30;;;7.75;;
55053;SDS011;40954;45.668;18.980;2023-04-03T04:08:56;8.05;;;7.25;;
55053;SDS011;40954;45.668;18.980;2023-04-03T04:11:22;9.52;;;8.02;;
55053;SDS011;40954;45.668;18.980;2023-04-03T04:13:48;9.63;;;7.55;;
55053;SDS011;40954;45.668;18.980;2023-04-03T04:16:14;10.30;;;8.25;;
55053;SDS011;40954;45.668;18.980;2023-04-03T04:18:40;11.30;;;8.38;;
55053;SDS011;40954;45.668;18.980;2023-04-03T04:21:06;9.02;;;8.13;;
55053;SDS011;40954;45.668;18.980;2023-04-03T04:23:32;9.48;;;7.65;;
55053;SDS011;40954;45.668;18.980;2023-04-03T04:25:58;9.77;;;8.20;;
55053;SDS011;40954;45.668;18.980;2023-04-03T04:28:24;9.90;;;8.88;;
55053;SDS011;40954;45.668;18.980;2023-04-03T04:30:50;9.80;;;8.80;;
55053;SDS011;40954;45.668;18.980;2023-04-03T04:33:16;9.52;;;8.52;;
55053;SDS011;40954;45.668;18.980;2023-04-03T04:35:42;11.88;;;9.55;;
55053;SDS011;40954;45.668;18.980;2023-04-03T04:38:08;11.05;;;9.88;;
55053;SDS011;40954;45.668;18.980;2023-04-03T04:40:35;10.85;;;9.20;;
55053;SDS011;40954;45.668;18.980;2023-04-03T04:43:02;9.85;;;8.85;;
55053;SDS011;40954;45.668;18.980;2023-04-03T04:45:28;10.85;;;9.45;;
55053;SDS011;40954;45.668;18.980;2023-04-03T04:47:55;11.68;;;9.38;;
55053;SDS011;40954;45.668;18.980;2023-04-03T04:50:21;10.77;;;9.35;;
55053;SDS011;40954;45.668;18.980;2023-04-03T04:52:47;10.18;;;9.15;;
55053;SDS011;40954;45.668;18.980;2023-04-03T04:55:13;10.43;;;9.32;;
55053;SDS011;40954;45.668;18.980;2023-04-03T04:57:40;11.43;;;8.45;;
55053;SDS011;40954;45.668;18.980;2023-04-03T05:00:06;10.05;;;9.05;;
55053;SDS011;40954;45.668;18.980;2023-04-03T05:02:32;9.95;;;8.95;;
55053;SDS011;40954;45.668;18.980;2023-04-03T05:04:58;10.32;;;8.68;;
55053;SDS011;40954;45.668;18.980;2023-04-03T05:07:24;9.95;;;8.95;;
55053;SDS011;40954;45.668;18.980;2023-04-03T05:09:50;9.43;;;8.43;;
55053;SDS011;40954;45.668;18.980;2023-04-03T05:12:16;9.60;;;8.60;;
55053;SDS011;40954;45.668;18.980;2023-04-03T05:14:42;11.23;;;8.63;;
55053;SDS011;40954;45.668;18.980;2023-04-03T05:17:08;9.80;;;8.38;;
55053;SDS011;40954;45.668;18.980;2023-04-03T05:19:34;8.65;;;7.75;;
55053;SDS011;40954;45.668;18.980;2023-04-03T05:22:00;10.40;;;7.40;;
55053;SDS011;40954;45.668;18.980;2023-04-03T05:24:27;8.93;;;8.02;;
55053;SDS011;40954;45.668;18.980;2023-04-03T05:26:53;9.00;;;8.10;;
55053;SDS011;40954;45.668;18.980;2023-04-03T05:29:19;8.93;;;7.90;;
55053;SDS011;40954;45.668;18.980;2023-04-03T05:31:45;8.45;;;7.65;;
55053;SDS011;40954;45.668;18.980;2023-04-03T05:34:11;7.63;;;6.82;;
55053;SDS011;40954;45.668;18.980;2023-04-03T05:36:37;8.88;;;7.50;;
55053;SDS011;40954;45.668;18.980;2023-04-03T05:39:03;10.50;;;8.57;;
55053;SDS011;40954;45.668;18.980;2023-04-03T05:41:29;8.10;;;7.30;;
55053;SDS011;40954;45.668;18.980;2023-04-03T05:43:55;9.38;;;8.15;;
55053;SDS011;40954;45.668;18.980;2023-04-03T05:46:21;7.82;;;7.03;;
55053;SDS011;40954;45.668;18.980;2023-04-03T05:48:48;8.30;;;7.10;;
55053;SDS011;40954;45.668;18.980;2023-04-03T05:51:15;7.72;;;6.63;;
55053;SDS011;40954;45.668;18.980;2023-04-03T05:53:41;7.18;;;6.47;;
55053;SDS011;40954;45.668;18.980;2023-04-03T05:56:09;8.02;;;6.80;;
55053;SDS011;40954;45.668;18.980;2023-04-03T05:58:36;6.28;;;5.68;;
55053;SDS011;40954;45.668;18.980;2023-04-03T06:01:02;7.55;;;6.78;;
55053;SDS011;40954;45.668;18.980;2023-04-03T06:03:28;7.57;;;6.80;;
55053;SDS011;40954;45.668;18.980;2023-04-03T06:05:54;7.72;;;6.97;;
55053;SDS011;40954;45.668;18.980;2023-04-03T06:08:20;8.77;;;7.45;;
55053;SDS011;40954;45.668;18.980;2023-04-03T06:10:46;9.70;;;7.72;;
55053;SDS011;40954;45.668;18.980;2023-04-03T06:13:12;8.82;;;7.00;;
55053;SDS011;40954;45.668;18.980;2023-04-03T06:15:38;9.38;;;7.65;;
55053;SDS011;40954;45.668;18.980;2023-04-03T06:18:05;7.38;;;6.65;;
55053;SDS011;40954;45.668;18.980;2023-04-03T06:20:31;7.78;;;6.88;;
55053;SDS011;40954;45.668;18.980;2023-04-03T06:22:58;7.95;;;7.15;;
55053;SDS011;40954;45.668;18.980;2023-04-03T06:25:24;8.40;;;7.60;;
55053;SDS011;40954;45.668;18.980;2023-04-03T06:27:50;8.13;;;6.93;;
55053;SDS011;40954;45.668;18.980;2023-04-03T06:30:16;9.07;;;7.28;;
55053;SDS011;40954;45.668;18.980;2023-04-03T06:32:42;8.65;;;6.82;;
55053;SDS011;40954;45.668;18.980;2023-04-03T06:35:08;10.32;;;7.38;;
55053;SDS011;40954;45.668;18.980;2023-04-03T06:37:34;9.60;;;7.97;;
55053;SDS011;40954;45.668;18.980;2023-04-03T06:40:00;7.32;;;6.60;;
55053;SDS011;40954;45.668;18.980;2023-04-03T06:42:28;7.95;;;7.15;;
55053;SDS011;40954;45.668;18.980;2023-04-03T06:44:54;9.38;;;8.15;;
55053;SDS011;40954;45.668;18.980;2023-04-03T06:47:20;8.57;;;6.60;;
55053;SDS011;40954;45.668;18.980;2023-04-03T06:49:46;8.35;;;7.43;;
55053;SDS011;40954;45.668;18.980;2023-04-03T06:52:12;8.18;;;7.38;;
55053;SDS011;40954;45.668;18.980;2023-04-03T06:54:39;7.97;;;7.18;;
55053;SDS011;40954;45.668;18.980;2023-04-03T06:57:05;8.23;;;6.85;;
55053;SDS011;40954;45.668;18.980;2023-04-03T06:59:31;7.93;;;6.70;;
55053;SDS011;40954;45.668;18.980;2023-04-03T07:01:57;8.05;;;6.63;;
55053;SDS011;40954;45.668;18.980;2023-04-03T07:04:24;9.43;;;6.93;;
55053;SDS011;40954;45.668;18.980;2023-04-03T07:06:51;13.63;;;7.03;;
55053;SDS011;40954;45.668;18.980;2023-04-03T07:09:17;7.65;;;5.95;;
55053;SDS011;40954;45.668;18.980;2023-04-03T07:11:43;9.88;;;8.70;;
55053;SDS011;40954;45.668;18.980;2023-04-03T07:14:10;7.95;;;7.20;;
55053;SDS011;40954;45.668;18.980;2023-04-03T07:16:36;8.75;;;7.35;;
55053;SDS011;40954;45.668;18.980;2023-04-03T07:19:02;7.75;;;6.93;;
55053;SDS011;40954;45.668;18.980;2023-04-03T07:21:28;12.00;;;7.35;;
55053;SDS011;40954;45.668;18.980;2023-04-03T07:23:55;8.60;;;7.00;;
55053;SDS011;40954;45.668;18.980;2023-04-03T07:26:31;6.97;;;6.28;;
55053;SDS011;40954;45.668;18.980;2023-04-03T07:28:57;8.27;;;6.63;;
55053;SDS011;40954;45.668;18.980;2023-04-03T07:31:23;9.30;;;6.82;;
55053;SDS011;40954;45.668;18.980;2023-04-03T07:33:50;7.05;;;6.35;;
55053;SDS011;40954;45.668;18.980;2023-04-03T07:36:18;7.80;;;6.97;;
55053;SDS011;40954;45.668;18.980;2023-04-03T07:38:44;7.60;;;6.32;;
55053;SDS011;40954;45.668;18.980;2023-04-03T07:41:12;7.18;;;6.47;;
55053;SDS011;40954;45.668;18.980;2023-04-03T07:43:40;11.60;;;6.00;;
55053;SDS011;40954;45.668;18.980;2023-04-03T07:46:07;6.82;;;6.13;;
55053;SDS011;40954;45.668;18.980;2023-04-03T07:48:34;7.68;;;5.60;;
55053;SDS011;40954;45.668;18.980;2023-04-03T07:51:00;7.63;;;6.60;;
55053;SDS011;40954;45.668;18.980;2023-04-03T07:53:27;6.70;;;6.00;;
55053;SDS011;40954;45.668;18.980;2023-04-03T07:55:53;7.75;;;6.78;;
55053;SDS011;40954;45.668;18.980;2023-04-03T07:58:21;8.63;;;6.50;;
55053;SDS011;40954;45.668;18.980;2023-04-03T08:00:47;6.78;;;6.07;;
55053;SDS011;40954;45.668;18.980;2023-04-03T08:03:14;8.93;;;6.32;;
55053;SDS011;40954;45.668;18.980;2023-04-03T08:05:42;7.15;;;6.10;;
55053;SDS011;40954;45.668;18.980;2023-04-03T08:08:09;10.43;;;7.28;;
55053;SDS011;40954;45.668;18.980;2023-04-03T08:10:35;6.63;;;6.03;;
55053;SDS011;40954;45.668;18.980;2023-04-03T08:13:02;6.80;;;6.10;;
55053;SDS011;40954;45.668;18.980;2023-04-03T08:15:28;7.13;;;6.43;;
55053;SDS011;40954;45.668;18.980;2023-04-03T08:17:55;7.82;;;6.65;;
55053;SDS011;40954;45.668;18.980;2023-04-03T08:20:21;6.88;;;5.72;;
55053;SDS011;40954;45.668;18.980;2023-04-03T08:22:47;7.28;;;6.57;;
55053;SDS011;40954;45.668;18.980;2023-04-03T08:25:13;7.25;;;6.55;;
55053;SDS011;40954;45.668;18.980;2023-04-03T08:27:40;7.60;;;6.47;;
55053;SDS011;40954;45.668;18.980;2023-04-03T08:30:06;9.90;;;6.70;;
55053;SDS011;40954;45.668;18.980;2023-04-03T08:32:33;11.85;;;7.50;;
55053;SDS011;40954;45.668;18.980;2023-04-03T08:34:59;7.85;;;6.18;;
55053;SDS011;40954;45.668;18.980;2023-04-03T08:37:25;7.47;;;6.72;;
55053;SDS011;40954;45.668;18.980;2023-04-03T08:39:51;8.60;;;6.63;;
55053;SDS011;40954;45.668;18.980;2023-04-03T08:45:10;8.20;;;6.78;;
55053;SDS011;40954;45.668;18.980;2023-04-03T08:50:19;7.78;;;6.97;;
55053;SDS011;40954;45.668;18.980;2023-04-03T08:52:52;9.40;;;8.45;;
55053;SDS011;40954;45.668;18.980;2023-04-03T08:58:12;6.20;;;5.68;;
55053;SDS011;40954;45.668;18.980;2023-04-03T09:03:18;7.65;;;6.53;;
55053;SDS011;40954;45.668;18.980;2023-04-03T09:16:56;6.68;;;5.97;;
55053;SDS011;40954;45.668;18.980;2023-04-03T09:21:49;6.53;;;5.93;;
55053;SDS011;40954;45.668;18.980;2023-04-03T09:24:16;9.52;;;6.43;;
55053;SDS011;40954;45.668;18.980;2023-04-03T09:26:48;7.28;;;6.43;;
55053;SDS011;40954;45.668;18.980;2023-04-03T09:29:18;6.50;;;5.80;;
55053;SDS011;40954;45.668;18.980;2023-04-03T09:31:44;6.45;;;5.85;;
55053;SDS011;40954;45.668;18.980;2023-04-03T09:34:34;7.75;;;6.47;;
55053;SDS011;40954;45.668;18.980;2023-04-03T09:37:02;7.00;;;6.40;;
55053;SDS011;40954;45.668;18.980;2023-04-03T09:39:32;7.15;;;6.45;;
55053;SDS011;40954;45.668;18.980;2023-04-03T09:42:02;8.07;;;6.70;;
55053;SDS011;40954;45.668;18.980;2023-04-03T09:44:36;7.20;;;6.50;;
55053;SDS011;40954;45.668;18.980;2023-04-03T09:52:42;9.10;;;8.20;;
55053;SDS011;40954;45.668;18.980;2023-04-03T09:55:18;8.52;;;7.55;;
55053;SDS011;40954;45.668;18.980;2023-04-03T09:57:46;8.13;;;6.15;;
55053;SDS011;40954;45.668;18.980;2023-04-03T10:00:25;6.47;;;5.53;;
55053;SDS011;40954;45.668;18.980;2023-04-03T10:02:52;6.38;;;5.78;;
55053;SDS011;40954;45.668;18.980;2023-04-03T10:07:52;7.22;;;6.53;;
55053;SDS011;40954;45.668;18.980;2023-04-03T10:10:32;10.05;;;9.05;;
55053;SDS011;40954;45.668;18.980;2023-04-03T10:13:05;8.30;;;7.45;;
55053;SDS011;40954;45.668;18.980;2023-04-03T10:15:36;7.57;;;6.88;;
55053;SDS011;40954;45.668;18.980;2023-04-03T10:18:03;7.63;;;5.97;;
55053;SDS011;40954;45.668;18.980;2023-04-03T10:20:39;8.55;;;6.07;;
55053;SDS011;40954;45.668;18.980;2023-04-03T10:28:18;7.50;;;6.72;;
55053;SDS011;40954;45.668;18.980;2023-04-03T10:35:50;9.93;;;6.70;;
55053;SDS011;40954;45.668;18.980;2023-04-03T10:38:41;8.10;;;6.82;;
55053;SDS011;40954;45.668;18.980;2023-04-03T10:41:13;9.38;;;6.32;;
55053;SDS011;40954;45.668;18.980;2023-04-03T10:46:15;7.60;;;6.78;;
55053;SDS011;40954;45.668;18.980;2023-04-03T10:51:24;7.68;;;6.82;;
55053;SDS011;40954;45.668;18.980;2023-04-03T10:54:11;8.05;;;7.10;;
55053;SDS011;40954;45.668;18.980;2023-04-03T10:56:39;7.95;;;7.07;;
55053;SDS011;40954;45.668;18.980;2023-04-03T10:59:17;8.30;;;7.10;;
55053;SDS011;40954;45.668;18.980;2023-04-03T11:01:45;7.20;;;6.53;;
55053;SDS011;40954;45.668;18.980;2023-04-03T11:04:12;8.35;;;6.82;;
55053;SDS011;40954;45.668;18.980;2023-04-03T11:06:43;8.10;;;6.68;;
55053;SDS011;40954;45.668;18.980;2023-04-03T11:09:33;7.30;;;6.60;;
55053;SDS011;40954;45.668;18.980;2023-04-03T11:12:09;7.03;;;6.05;;
55053;SDS011;40954;45.668;18.980;2023-04-03T11:14:36;7.28;;;6.57;;
55053;SDS011;40954;45.668;18.980;2023-04-03T11:19:47;8.23;;;7.43;;
55053;SDS011;40954;45.668;18.980;2023-04-03T11:24:42;8.57;;;7.22;;
55053;SDS011;40954;45.668;18.980;2023-04-03T11:27:15;9.82;;;7.70;;
55053;SDS011;40954;45.668;18.980;2023-04-03T11:29:41;10.43;;;9.32;;
55053;SDS011;40954;45.668;18.980;2023-04-03T11:34:55;15.88;;;9.93;;
55053;SDS011;40954;45.668;18.980;2023-04-03T11:39:57;8.10;;;7.35;;
55053;SDS011;40954;45.668;18.980;2023-04-03T11:42:25;8.23;;;7.43;;
55053;SDS011;40954;45.668;18.980;2023-04-03T11:45:15;7.15;;;6.45;;
55053;SDS011;40954;45.668;18.980;2023-04-03T11:47:46;7.20;;;6.47;;
55053;SDS011;40954;45.668;18.980;2023-04-03T11:52:58;7.07;;;6.38;;
55053;SDS011;40954;45.668;18.980;2023-04-03T12:08:30;6.93;;;6.22;;
55053;SDS011;40954;45.668;18.980;2023-04-03T12:21:16;10.30;;;7.60;;
55053;SDS011;40954;45.668;18.980;2023-04-03T12:26:27;8.50;;;7.13;;
55053;SDS011;40954;45.668;18.980;2023-04-03T12:28:53;9.82;;;8.27;;
55053;SDS011;40954;45.668;18.980;2023-04-03T12:31:20;8.00;;;7.30;;
55053;SDS011;40954;45.668;18.980;2023-04-03T12:34:04;7.53;;;6.85;;
55053;SDS011;40954;45.668;18.980;2023-04-03T12:36:39;7.45;;;6.55;;
55053;SDS011;40954;45.668;18.980;2023-04-03T12:39:18;7.07;;;6.38;;
55053;SDS011;40954;45.668;18.980;2023-04-03T12:44:37;7.10;;;6.40;;
55053;SDS011;40954;45.668;18.980;2023-04-03T12:47:16;8.98;;;7.63;;
55053;SDS011;40954;45.668;18.980;2023-04-03T12:49:46;8.90;;;7.30;;
55053;SDS011;40954;45.668;18.980;2023-04-03T12:52:17;7.90;;;7.10;;
55053;SDS011;40954;45.668;18.980;2023-04-03T12:54:45;7.57;;;6.87;;
55053;SDS011;40954;45.668;18.980;2023-04-03T12:59:41;8.25;;;7.43;;
55053;SDS011;40954;45.668;18.980;2023-04-03T13:02:15;7.40;;;6.70;;
55053;SDS011;40954;45.668;18.980;2023-04-03T13:04:43;7.30;;;6.60;;
55053;SDS011;40954;45.668;18.980;2023-04-03T13:12:35;10.38;;;6.55;;
55053;SDS011;40954;45.668;18.980;2023-04-03T13:15:03;13.95;;;6.40;;
55053;SDS011;40954;45.668;18.980;2023-04-03T13:17:41;10.57;;;6.57;;
55053;SDS011;40954;45.668;18.980;2023-04-03T13:20:18;6.72;;;5.75;;
55053;SDS011;40954;45.668;18.980;2023-04-03T13:22:47;6.60;;;5.95;;
55053;SDS011;40954;45.668;18.980;2023-04-03T13:25:15;6.85;;;6.05;;
55053;SDS011;40954;45.668;18.980;2023-04-03T13:27:42;8.27;;;6.57;;
55053;SDS011;40954;45.668;18.980;2023-04-03T13:30:19;7.13;;;6.47;;
55053;SDS011;40954;45.668;18.980;2023-04-03T13:32:45;8.63;;;6.72;;
55053;SDS011;40954;45.668;18.980;2023-04-03T13:35:31;7.35;;;6.65;;
55053;SDS011;40954;45.668;18.980;2023-04-03T13:38:21;7.70;;;6.65;;
55053;SDS011;40954;45.668;18.980;2023-04-03T13:40:51;7.07;;;6.43;;
55053;SDS011;40954;45.668;18.980;2023-04-03T13:43:19;7.22;;;6.53;;
55053;SDS011;40954;45.668;18.980;2023-04-03T13:48:34;6.88;;;6.20;;
55053;SDS011;40954;45.668;18.980;2023-04-03T13:51:16;7.72;;;6.38;;
55053;SDS011;40954;45.668;18.980;2023-04-03T13:53:45;8.20;;;7.40;;
55053;SDS011;40954;45.668;18.980;2023-04-03T13:56:17;12.00;;;7.22;;
55053;SDS011;40954;45.668;18.980;2023-04-03T13:58:54;6.82;;;6.15;;
55053;SDS011;40954;45.668;18.980;2023-04-03T14:01:22;9.52;;;6.72;;
55053;SDS011;40954;45.668;18.980;2023-04-03T14:03:53;25.52;;;13.27;;
55053;SDS011;40954;45.668;18.980;2023-04-03T14:06:19;7.57;;;6.78;;
55053;SDS011;40954;45.668;18.980;2023-04-03T14:08:45;8.88;;;6.93;;
55053;SDS011;40954;45.668;18.980;2023-04-03T14:11:22;7.78;;;6.80;;
55053;SDS011;40954;45.668;18.980;2023-04-03T14:13:52;8.25;;;5.53;;
55053;SDS011;40954;45.668;18.980;2023-04-03T14:16:19;7.38;;;5.68;;
55053;SDS011;40954;45.668;18.980;2023-04-03T14:18:46;6.13;;;5.57;;
55053;SDS011;40954;45.668;18.980;2023-04-03T14:21:13;6.95;;;6.25;;
55053;SDS011;40954;45.668;18.980;2023-04-03T14:23:40;6.07;;;5.53;;
55053;SDS011;40954;45.668;18.980;2023-04-03T14:26:17;9.80;;;6.28;;
55053;SDS011;40954;45.668;18.980;2023-04-03T14:28:48;7.47;;;5.80;;
55053;SDS011;40954;45.668;18.980;2023-04-03T14:31:14;6.43;;;5.82;;
55053;SDS011;40954;45.668;18.980;2023-04-03T14:33:41;7.38;;;6.50;;
55053;SDS011;40954;45.668;18.980;2023-04-03T14:36:21;15.85;;;6.68;;
55053;SDS011;40954;45.668;18.980;2023-04-03T14:38:48;7.32;;;6.53;;
55053;SDS011;40954;45.668;18.980;2023-04-03T14:41:15;8.80;;;7.20;;
55053;SDS011;40954;45.668;18.980;2023-04-03T14:43:41;7.95;;;7.15;;
55053;SDS011;40954;45.668;18.980;2023-04-03T14:46:15;9.45;;;6.72;;
55053;SDS011;40954;45.668;18.980;2023-04-03T14:48:41;9.18;;;6.80;;
55053;SDS011;40954;45.668;18.980;2023-04-03T14:51:09;7.18;;;6.45;;
55053;SDS011;40954;45.668;18.980;2023-04-03T14:53:36;8.60;;;6.38;;
55053;SDS011;40954;45.668;18.980;2023-04-03T14:56:02;9.02;;;7.10;;
55053;SDS011;40954;45.668;18.980;2023-04-03T14:58:28;8.52;;;6.40;;
55053;SDS011;40954;45.668;18.980;2023-04-03T15:00:54;7.07;;;6.15;;
55053;SDS011;40954;45.668;18.980;2023-04-03T15:03:20;7.25;;;6.45;;
55053;SDS011;40954;45.668;18.980;2023-04-03T15:05:48;7.18;;;6.05;;
55053;SDS011;40954;45.668;18.980;2023-04-03T15:08:25;8.00;;;7.20;;
55053;SDS011;40954;45.668;18.980;2023-04-03T15:10:51;8.20;;;7.22;;
55053;SDS011;40954;45.668;18.980;2023-04-03T15:13:18;8.82;;;7.60;;
55053;SDS011;40954;45.668;18.980;2023-04-03T15:15:44;8.95;;;7.55;;
55053;SDS011;40954;45.668;18.980;2023-04-03T15:18:15;11.57;;;8.65;;
55053;SDS011;40954;45.668;18.980;2023-04-03T15:20:42;8.63;;;7.72;;
55053;SDS011;40954;45.668;18.980;2023-04-03T15:23:08;9.65;;;8.23;;
55053;SDS011;40954;45.668;18.980;2023-04-03T15:25:35;10.40;;;8.13;;
55053;SDS011;40954;45.668;18.980;2023-04-03T15:28:01;11.05;;;9.40;;
55053;SDS011;40954;45.668;18.980;2023-04-03T15:30:27;17.13;;;12.30;;
55053;SDS011;40954;45.668;18.980;2023-04-03T15:32:53;17.38;;;12.68;;
55053;SDS011;40954;45.668;18.980;2023-04-03T15:35:19;44.25;;;25.83;;
55053;SDS011;40954;45.668;18.980;2023-04-03T15:37:45;27.77;;;20.45;;
55053;SDS011;40954;45.668;18.980;2023-04-03T15:40:13;15.95;;;11.70;;
55053;SDS011;40954;45.668;18.980;2023-04-03T15:42:39;10.30;;;9.25;;
55053;SDS011;40954;45.668;18.980;2023-04-03T15:45:05;10.38;;;8.55;;
55053;SDS011;40954;45.668;18.980;2023-04-03T15:47:32;14.02;;;10.27;;
55053;SDS011;40954;45.668;18.980;2023-04-03T15:49:58;14.35;;;9.63;;
55053;SDS011;40954;45.668;18.980;2023-04-03T15:52:24;12.10;;;9.82;;
55053;SDS011;40954;45.668;18.980;2023-04-03T15:54:50;13.48;;;9.98;;
55053;SDS011;40954;45.668;18.980;2023-04-03T15:57:16;12.18;;;9.70;;
55053;SDS011;40954;45.668;18.980;2023-04-03T15:59:42;9.98;;;8.60;;
55053;SDS011;40954;45.668;18.980;2023-04-03T16:02:08;13.65;;;10.82;;
55053;SDS011;40954;45.668;18.980;2023-04-03T16:04:37;13.73;;;9.52;;
55053;SDS011;40954;45.668;18.980;2023-04-03T16:07:03;10.57;;;9.02;;
55053;SDS011;40954;45.668;18.980;2023-04-03T16:09:31;13.07;;;10.25;;
55053;SDS011;40954;45.668;18.980;2023-04-03T16:11:57;11.98;;;9.45;;
55053;SDS011;40954;45.668;18.980;2023-04-03T16:14:23;14.15;;;9.25;;
55053;SDS011;40954;45.668;18.980;2023-04-03T16:16:49;13.30;;;10.02;;
55053;SDS011;40954;45.668;18.980;2023-04-03T16:19:15;13.45;;;9.85;;